createdAt,value
2022-11-05T00:21:20.616Z,85.02
2022-11-05T00:50:25.228Z,84.47
2022-11-05T01:19:25.694Z,84.6
2022-11-05T01:48:20.890Z,84.92
2022-11-05T02:17:24.504Z,84.56
2022-11-05T02:46:24.840Z,84.46
2022-11-05T03:15:26.281Z,84.73
2022-11-05T03:44:26.055Z,85.84
2022-11-05T04:13:27.157Z,89.82
2022-11-05T04:42:29.543Z,89.68
2022-11-05T05:11:30.730Z,89.19
2022-11-05T05:40:21.096Z,88.14
2022-11-05T06:09:27.977Z,85.13
2022-11-05T06:38:22.294Z,84.32
2022-11-05T07:07:23.052Z,83.69
2022-11-05T07:36:25.506Z,82.23
2022-11-05T08:05:27.944Z,82.16
2022-11-05T08:34:31.551Z,81.44
2022-11-05T09:03:35.223Z,80.08
2022-11-05T09:32:37.808Z,78.34
2022-11-05T10:01:43.119Z,76.76
2022-11-05T10:30:29.546Z,72.87
2022-11-05T10:59:27.763Z,73.36
2022-11-05T11:28:22.020Z,73.6
2022-11-05T11:57:27.997Z,71.53
2022-11-05T12:26:31.987Z,72.69
2022-11-05T12:55:28.458Z,71.51
2022-11-05T13:24:24.127Z,69.48
2022-11-05T13:53:23.409Z,67.85
2022-11-05T14:22:22.434Z,68.2
2022-11-05T14:51:23.876Z,70.28
2022-11-05T15:20:26.024Z,69.57
2022-11-05T15:49:21.912Z,72.1
2022-11-05T16:18:18.114Z,72.76
2022-11-05T16:47:18.142Z,73.73
2022-11-05T17:16:19.175Z,77.55
2022-11-05T17:45:16.851Z,79.58
2022-11-05T18:14:13.616Z,80.01
2022-11-05T18:43:15.624Z,80.63
2022-11-05T19:11:54.459Z,80.35
2022-11-05T19:40:54.349Z,80.23
2022-11-05T20:09:52.448Z,80.51
2022-11-05T20:38:52.841Z,81.37
2022-11-05T21:07:53.779Z,81.22
2022-11-05T21:36:44.970Z,81.37
2022-11-05T22:05:39.242Z,81.62
2022-11-05T22:34:38.553Z,81.51
2022-11-05T23:03:36.875Z,81.33
2022-11-05T23:32:35.047Z,81.47
